Luca Ranieri

Chefscout - Cesena
3 Dez 2028
Sonntag
Verarbeitung

Persönlichkeit

Anpassungsfähigkeit (14) Ehrgeiz (1) Kontroverse (5) Loyalität (19) Druck (14) Professionalität (13) Fairness (9) Temperament (7)

Profil

Trainerstil Demokratisch
Lizenz Kontinentale A
Entschlossenheit 7
Menschenführung 7
Motivation 10
Disziplin 6
Arbeitszufriedenheit
100%
Ermüdung
0%
Rolle Chefscout
Gehalt 35.2K p/W
Vertrag 14.03.2029

Leistung

Verhalten Gut
Trainingseffektivität
48%
Spielerentwicklung
45%
Verletzungsprävention
35%
Taktische Umsetzung
25%

Letzte Ereignisse

Spieler begutachtet jetzt
Nahm an einer Scouting-Besprechung teil jetzt
Spieler begutachtet jetzt
Nahm an einer Scouting-Besprechung teil 7T her
Spieler begutachtet 7T her
Spieler begutachtet 7T her
Spieler begutachtet 7T her
Spieler begutachtet 14T her

Aktuell beobachtet

201
Spieler Verein Status Fähigkeit Vertrauen Beobachtet Zuletzt beobachtet Letzte Stimme
Gideon Manaseh Ikorodu City Aktiv 95 / 97 40% 4 02.12.2028 -
Tyson Pearce St. Louis CITY SC Aktiv 92 / 99 40% 3 02.12.2028 -
Cheveyo Tsawa Club Brugge Aktiv 127 / 145 40% 2 02.12.2028 -
Vitaly Bondarev Ural Aktiv 103 / 99 40% 1 01.12.2028 -
David Weiss Omonoia Aktiv 107 / 127 40% 1 01.12.2028 -
Salvador Blopá Wolverhampton Aktiv 130 / 138 40% 1 01.12.2028 -
Giovanni Leoni Lincoln City Aktiv 144 / 157 40% 2 28.11.2028 -
Andrija Bulatović Chamois Niortais Aktiv 136 / 144 40% 2 28.11.2028 -
Harrison Armstrong Ipswich Town Aktiv 139 / 143 40% 4 28.11.2028 -
Jan Bürger Northampton Town Aktiv 121 / 131 40% 4 27.11.2028 -
Mateo Faure BATE Aktiv 95 / 80 40% 4 27.11.2028 -
Estanislao López Colón Aktiv 97 / 85 40% 5 27.11.2028 -
Tyler Fletcher Rotherham United Aktiv 122 / 121 40% 11 26.11.2028 -
Chris Rigg West Ham United Aktiv 138 / 145 40% 4 26.11.2028 -
Davide De Fraia Latina Aktiv 95 / 95 40% 1 26.11.2028 -
Christos Mouzakitis Hull City Aktiv 139 / 147 40% 5 23.11.2028 -
Veljko Milosavljević Bournemouth Aktiv 148 / 147 40% 3 23.11.2028 -
Aytor Herrera Mineros de Guayana Aktiv 90 / 76 40% 2 22.11.2028 -
Pietro La Torre Queens Park Rangers Aktiv 101 / 112 40% 2 22.11.2028 -
Máximo Munarriz San Telmo Aktiv 96 / 104 40% 2 19.11.2028 -
Felipe Pujol Vélez Aktiv 116 / 118 40% 3 19.11.2028 -
Balagie Darboe FC Dallas Aktiv 79 / 98 40% 1 17.11.2028 -
Trey Nyoni Rotherham United Aktiv 144 / 151 40% 6 16.11.2028 -
Matías Magdaleno Estudiantes Aktiv 117 / 134 40% 1 16.11.2028 -
Diego León Rotherham United Aktiv 131 / 126 40% 3 15.11.2028 -
Johan Solstad-Nøis Tromso Aktiv 94 / 101 40% 2 12.11.2028 -
Snyder Brunell Seattle Sounders Aktiv 87 / 100 40% 2 12.11.2028 -
Ronan Kpakio AC Milan Aktiv 123 / 125 40% 1 12.11.2028 -
José Neto Benfica Aktiv 123 / 135 40% 1 11.11.2028 -
Matteo Palma Udinese Aktiv 130 / 128 40% 1 09.11.2028 -
Mateo Caballero Defensor Sporting Aktiv 94 / 94 40% 1 09.11.2028 -
Riquelme Thompson-Jones Accrington Stanley Aktiv 114 / 130 40% 6 08.11.2028 -
Miguel Figueiredo Benfica Aktiv 131 / 125 40% 7 07.11.2028 -
Onyeuche Ujunwa Ikorodu City Aktiv 94 / 96 40% 6 07.11.2028 -
Eman Košpo Zorya Aktiv 112 / 112 40% 2 06.11.2028 -
Germán Barbas Racing Santander Aktiv 123 / 132 40% 1 06.11.2028 -
Björn Hedlöf Helsingborg Aktiv 94 / 105 40% 2 04.11.2028 -
Luka Vušković Tottenham Aktiv 149 / 146 40% 1 04.11.2028 -
Ayyoub Bouaddi Stoke City Aktiv 150 / 156 40% 3 01.11.2028 -
Malte Heyde Esbjerg Aktiv 110 / 116 40% 1 01.11.2028 -
Kiani Inge Groningen Aktiv 113 / 124 40% 4 30.10.2028 -
Juan Camilo Córdoba Deportivo Pereira Aktiv 89 / 100 40% 1 30.10.2028 -
Noah Markmann Esbjerg Aktiv 125 / 124 40% 1 29.10.2028 -
Celías Ingenthron Platense Aktiv 127 / 112 40% 1 28.10.2028 -
Anderson Acevedo Bogota Aktiv 92 / 109 40% 2 27.10.2028 -
Louis Page Leicester City Aktiv 132 / 151 40% 2 25.10.2028 -
Alessio Insignito Spezia Aktiv 106 / 123 40% 1 25.10.2028 -
Matías Satas Grimsby Town Aktiv 103 / 117 40% 1 25.10.2028 -
Martim Cunha Porto Aktiv 117 / 111 40% 3 24.10.2028 -
Máximo Magnoli Ferro Carril Oeste Aktiv 103 / 104 40% 2 24.10.2028 -
Yury Oyarzo Racing Aktiv 104 / 102 40% 1 23.10.2028 -
Samuel Molano Patriotas Aktiv 81 / 99 40% 1 23.10.2028 -
Andrey Ivlev Nizhniy Novgorod Aktiv 109 / 112 40% 2 21.10.2028 -
Filip Reshane Stabaek Aktiv 109 / 105 40% 1 21.10.2028 -
Ezra Mayers West Ham United Aktiv 131 / 134 40% 4 15.10.2028 -
Alejandro Almaraz NK Celje Aktiv 119 / 125 40% 1 15.10.2028 -
Harry Amass Manchester United Aktiv 150 / 146 40% 1 14.10.2028 -
Daniel Banjaqui Benfica Aktiv 134 / 125 40% 3 12.10.2028 -
Alessandro De Luca Sint-Truiden Aktiv 98 / 94 40% 1 12.10.2028 -
Davinchi Getafe Aktiv 121 / 120 40% 1 12.10.2028 -
Alexandr Derzhinskiy Slavia Mozyr Aktiv 100 / 109 40% 1 11.10.2028 -
Agustín Medina Lanús Aktiv 128 / 119 40% 2 06.10.2028 -
Andrei Racu Kasimpasa Aktiv 98 / 90 40% 1 05.10.2028 -
Andrea Astrologo AlbinoLeffe Bericht bereit 103 / 93 76% 1 21.08.2028 -
Jamal Iddrissou Pergolettese Aktiv 117 / 133 40% 2 31.07.2028 -
Lautaro Díaz San Martín Aktiv 96 / 85 40% 1 31.07.2028 -
Giovanni Carbone Cosenza Aktiv 85 / 82 40% 1 31.07.2028 -
Ben Broggio Mansfield Town Aktiv 119 / 131 40% 3 26.07.2028 -
Shea Lacey Crystal Palace Aktiv 133 / 132 40% 2 19.06.2028 -
Josh Nichols Oldham Athletic Aktiv 120 / 132 40% 4 19.06.2028 -
Christian Aucelli Trento Verloren 113 / 108 76% 1 19.06.2028 -
Ryan Oné Sheffield United Aktiv 119 / 135 40% 1 19.06.2028 -
Luca Mazzeo Picerno Verloren 107 / 98 76% 1 06.06.2028 -
Babis Kostoulas Oxford United Aktiv 148 / 156 40% 6 31.05.2028 -
Amin Nabizada Exeter City Aktiv 114 / 112 40% 3 31.05.2028 -
Eduard Ihnatov Ospitaletto Aktiv 96 / 110 40% 3 31.05.2028 -
Igor Tyjon Barrow AFC Aktiv 116 / 134 40% 2 30.05.2028 -
Leo Pecover Swindon Town Aktiv 103 / 109 40% 1 30.05.2028 -
Alphadjo Cissé Lecce Aktiv 136 / 143 40% 2 28.05.2028 -
Ryan Kavuma-McQueen Accrington Stanley Aktiv 123 / 119 40% 2 27.05.2028 -
Mattia Esposito Virtus Verona Aktiv 82 / 102 40% 1 25.05.2028 -
Eli Junior Kroupi Bournemouth Aktiv 144 / 143 40% 4 24.05.2028 -
Henrique Carmo Sochi Aktiv 124 / 149 40% 4 24.05.2028 -
Sindre Walle Egeli Udinese Aktiv 143 / 142 40% 2 23.05.2028 -
Rio Ngumoha Plymouth Argyle Aktiv 147 / 153 40% 3 23.05.2028 -
Gabe Forsyth Colchester United Aktiv 114 / 121 40% 1 22.05.2028 -
Ryan McAidoo Oldham Athletic Aktiv 128 / 122 40% 3 21.05.2028 -
Romelle Donovan Brentford Aktiv 131 / 143 40% 3 20.05.2028 -
Tomás Peixoto Porto Aktiv 104 / 96 40% 1 19.05.2028 -
Ibrahim Fullah Charlton Athletic Aktiv 125 / 132 40% 1 19.05.2028 -
Gaël Lafont Dolomiti Bellunesi Aktiv 100 / 118 40% 2 18.05.2028 -
Gabriel Mec Feirense Aktiv 123 / 124 40% 1 18.05.2028 -
Fletcher Boyd Accrington Stanley Aktiv 105 / 111 40% 1 17.05.2028 -
İsak Vural Audace Cerignola Aktiv 125 / 116 40% 1 15.05.2028 -
Omar Khedr Gillingham Aktiv 117 / 117 40% 2 12.05.2028 -
Mateus Mané Burnley Aktiv 139 / 142 40% 1 12.05.2028 -
Andrea Luongo Trento Aktiv 95 / 103 40% 2 10.05.2028 -
Luca Williams-Barnett Walsall Aktiv 125 / 134 40% 1 01.05.2028 -
Jake Evans Crewe Alexandra Aktiv 108 / 112 40% 2 30.04.2028 -
André Miranda Porto Aktiv 117 / 118 40% 1 25.04.2028 -
Kerim Alajbegović Modena Aktiv 136 / 142 40% 3 18.04.2028 -
Luke Brooke-Smith Chesterfield Aktiv 99 / 105 40% 1 18.04.2028 -
Federico Matarán Giana Erminio Aktiv 107 / 103 40% 7 08.04.2028 -
Nicolas Sport Recife Aktiv 105 / 108 40% 1 08.04.2028 -
Olivier Mambwa Young Boys Aktiv 109 / 128 40% 1 03.04.2028 -
Othniël Raterink Cagliari Aktiv 120 / 129 40% 3 25.03.2028 -
Andrea Cogoni Cosenza Aktiv 107 / 126 40% 1 25.03.2028 -
Olivier Leroux Mouscron Aktiv 99 / 119 40% 3 21.03.2028 -
Claudio Martey Pianese Aktiv 88 / 80 40% 1 21.03.2028 -
Orazio Pazienza Foggia Aktiv 98 / 97 40% 1 19.03.2028 -
Abubakar Adams Aduana Stars Aktiv 84 / 86 40% 2 15.03.2028 -
Simone Suppa Virtus Verona Aktiv 87 / 91 40% 1 11.03.2028 -
Tobiáš Pališčák Zlin Aktiv 99 / 104 40% 1 08.03.2028 -
Matvey Bardachev Zenit Aktiv 110 / 106 40% 1 08.03.2028 -
Alessio Rizza Livorno Aktiv 108 / 108 76% 1 10.01.2028 -
Mao Hosoya Santos Aktiv 134 / 135 67% 1 01.01.2028 -
Bitello Universidad de Chile Aktiv 135 / 135 68% 1 01.01.2028 -
Facundo Torres Millonarios Aktiv 134 / 134 67% 1 01.01.2028 -
Matías Canedo Rampla Juniors Aktiv 92 / 71 40% 1 31.12.2027 -
Josh Acheampong Everton Aktiv 139 / 158 40% 2 20.12.2027 -
Luighi Palmeiras Aktiv 110 / 128 40% 1 20.12.2027 -
Olívio Tomé Benfica Aktiv 120 / 127 40% 1 20.12.2027 -
Matias Siltanen Malmo FF Aktiv 119 / 141 40% 6 19.12.2027 -
Edison Gruezo Guadalajara Aktiv 101 / 102 40% 1 19.12.2027 -
Emmanuel Ndubueze Shooting Stars Aktiv 88 / 101 40% 5 15.12.2027 -
Nupe Godstime Bayelsa United Aktiv 85 / 96 40% 2 15.12.2027 -
Gabriele Bertolini Vicenza Aktiv 101 / 118 40% 2 13.12.2027 -
Francisco Marchant Colo-Colo Aktiv 89 / 112 40% 1 13.12.2027 -
Victor Hernandez Santa Fe Aktiv 120 / 136 40% 7 10.12.2027 -
Gianluca Prestianni Benfica Aktiv 145 / 147 40% 3 10.12.2027 -
Joseph Abah Remo Stars Aktiv 90 / 102 40% 2 08.12.2027 -
Pedro Baltika Aktiv 138 / 154 40% 4 07.12.2027 -
Colin Guske Orlando City Aktiv 104 / 110 40% 2 07.12.2027 -
Senny Mayulu Paris Saint-Germain Aktiv 144 / 157 40% 1 06.12.2027 -
Giovanni Baroni Talleres Aktiv 104 / 127 40% 2 04.12.2027 -
Joel Ezra Enyimba Aktiv 99 / 108 40% 2 04.12.2027 -
Kabiru Abdullahi Barau Aktiv 92 / 81 40% 3 03.12.2027 -
Dániel Pintér Inter Miami CF Aktiv 94 / 90 40% 1 01.12.2027 -
Keyano Marrah Hammarby Aktiv 88 / 100 40% 1 30.11.2027 -
Musa Malik Ikorodu City Aktiv 84 / 96 40% 1 26.11.2027 -
Tiago Pucciarelli IF Elfsborg Aktiv 106 / 98 40% 1 25.11.2027 -
Abdulrahman Hamisu Niger Tornadoes Aktiv 87 / 103 40% 1 23.11.2027 -
Olger Escobar CF Montreal Aktiv 93 / 85 40% 2 22.11.2027 -
Chimobi Igwilo Rangers International Aktiv 85 / 96 40% 2 21.11.2027 -
Imran Musa Atvidaberg Aktiv 90 / 82 40% 1 19.11.2027 -
Francisco Triver River Plate Aktiv 84 / 106 40% 2 16.11.2027 -
Joel Medina Independiente Aktiv 102 / 108 40% 1 13.11.2027 -
Matías Arias Vélez Aktiv 122 / 134 40% 2 10.11.2027 -
Piero Cari Alianza Lima Aktiv 94 / 88 40% 1 08.11.2027 -
Idris Ajiya Nasarawa United Aktiv 91 / 84 40% 1 06.11.2027 -
Adrian Skogmar Malmo FF Aktiv 120 / 138 40% 1 04.11.2027 -
Ruben Ramos LA Galaxy Aktiv 92 / 103 40% 1 02.11.2027 -
Luis Yanes Real Cartagena Aktiv 93 / 86 40% 1 02.11.2027 -
Sascha Britschgi AC Milan Aktiv 123 / 143 40% 6 10.08.2027 -
Pedro Vian Seewald Dolomiti Bellunesi Aktiv 95 / 112 40% 1 29.05.2027 -
Gady Beyuku Blackburn Rovers Aktiv 109 / 128 40% 1 29.05.2027 -
Gonçalo Oliveira Benfica Aktiv 115 / 128 40% 2 28.05.2027 -
Bade Aluko Leicester City Aktiv 108 / 121 40% 2 28.05.2027 -
Charlie Gray Fleetwood Town Aktiv 85 / 107 40% 4 26.05.2027 -
Jacopo Bacci Sorrento Aktiv 94 / 118 40% 2 26.05.2027 -
Bence Dárdai VfL Wolfsburg Aktiv 134 / 146 40% 4 25.05.2027 -
Tiago Freitas Benfica Aktiv 113 / 106 40% 5 22.05.2027 -
Rhys Walters Port Vale Aktiv 105 / 115 40% 2 16.05.2027 -
Leandro Martins Benfica Aktiv 98 / 99 40% 3 15.05.2027 -
Andrea Bertoncini Triestina Aktiv 87 / 87 40% 3 13.05.2027 -
Tommaso Cecotti Carpi Aktiv 89 / 102 40% 2 12.05.2027 -
Alessandro Zoboletti Sambenedettese Aktiv 96 / 106 40% 3 06.05.2027 -
Bernardo Lima Porto Aktiv 102 / 119 40% 3 06.05.2027 -
Wessel Kuhn PSV Aktiv 113 / 110 40% 1 03.05.2027 -
Samuele di Benedetto Twente Aktiv 107 / 111 40% 1 26.04.2027 -
Riyad Idrissi Cagliari Aktiv 126 / 131 40% 3 22.04.2027 -
Riley Owen Stevenage Aktiv 105 / 107 40% 2 20.04.2027 -
David Ozoh Derby County Aktiv 120 / 132 40% 3 19.04.2027 -
Rivaldo Mkhize Black Aces Aktiv 92 / 83 40% 2 16.04.2027 -
Kazunari Kita Real Sociedad Aktiv 102 / 109 40% 2 27.03.2027 -
Afriyie Sulemana WAFA Aktiv 81 / 88 40% 1 23.03.2027 -
Maxim Radchenko Rostov Aktiv 73 / 78 40% 1 23.03.2027 -
Mpho Khethang FC Diarra Aktiv 77 / 93 40% 1 20.03.2027 -
Eivind Helland AC Milan Aktiv 133 / 136 40% 1 11.03.2027 -
Samuele Diodato Lumezzane Aktiv 90 / 89 40% 1 11.03.2027 -
Federico Valentini Forli Aktiv 87 / 102 40% 1 10.03.2027 -
Amine Boukamir Charleroi Aktiv 106 / 94 40% 1 08.03.2027 -
Dean Jali Platinum Stars Aktiv 91 / 87 40% 1 07.03.2027 -
Francesco D'Alessio Cittadella Aktiv 114 / 108 69% 1 07.01.2027 -
Sampson Dweh Mallorca Aktiv 133 / 134 66% 1 01.01.2027 -
Brayan Gil Baltika Aktiv 121 / 141 40% 2 29.12.2026 -
Etiosa Ighodaro Kaizer Chiefs Aktiv 104 / 115 40% 1 29.12.2026 -
Martin Sekulić Ural Aktiv 99 / 103 40% 1 27.12.2026 -
Nicolò Zaniolo Udinese Aktiv 152 / 130 40% 2 26.12.2026 -
Giacomo Raspadori Atalanta Aktiv 155 / 131 40% 1 26.12.2026 -
Jordan Zemura Udinese Aktiv 131 / 139 40% 1 26.12.2026 -
Willem Geubbels Lecce Aktiv 135 / 129 40% 2 24.12.2026 -
Giorgi Kvernadze Frosinone Aktiv 128 / 113 40% 2 23.12.2026 -
Luis Caicedo Spartak 1918 Aktiv 104 / 98 40% 1 23.12.2026 -
Mattia Felici Cagliari Aktiv 138 / 119 40% 2 17.12.2026 -
Amin Sarr Hellas Verona Aktiv 133 / 121 40% 3 16.12.2026 -
Mathys Tel Tottenham Aktiv 148 / 136 40% 1 16.12.2026 -
David Romero Parma Aktiv 117 / 134 40% 1 14.12.2026 -
Yeangel Montero Naxxar Lions Aktiv 108 / 116 40% 1 14.12.2026 -
Talles Magno New York City Aktiv 127 / 135 40% 1 09.12.2026 -
Gianluca Scamacca Atalanta Aktiv 150 / 149 40% 1 07.12.2026 -